createdAt,value
2023-04-08T00:02:15.906Z,62.72
2023-04-08T00:04:42.912Z,63.06
2023-04-08T00:07:09.555Z,62.76
2023-04-08T00:09:36.337Z,62.44
2023-04-08T00:12:03.040Z,62.87
2023-04-08T00:14:29.587Z,64.20
2023-04-08T00:16:56.296Z,64.03
2023-04-08T00:19:22.848Z,64.86
2023-04-08T00:21:49.365Z,63.62
2023-04-08T00:24:16.610Z,63.40
2023-04-08T00:26:43.355Z,63.70
2023-04-08T00:29:09.890Z,64.34
2023-04-08T00:31:36.697Z,63.19
2023-04-08T00:34:03.220Z,63.43
2023-04-08T00:36:29.848Z,62.68
2023-04-08T00:38:56.777Z,63.03
2023-04-08T00:41:23.431Z,63.13
2023-04-08T00:43:49.925Z,62.76
2023-04-08T00:46:16.730Z,62.46
2023-04-08T00:48:43.389Z,63.63
2023-04-08T00:51:09.954Z,67.16
2023-04-08T00:53:36.583Z,67.05
2023-04-08T00:56:03.532Z,66.77
2023-04-08T00:58:30.395Z,66.48
2023-04-08T01:01:11.412Z,65.29
2023-04-08T01:03:47.398Z,66.83
2023-04-08T01:06:23.792Z,68.65
2023-04-08T01:08:51.838Z,68.67
2023-04-08T01:11:18.840Z,70.71
2023-04-08T01:13:46.637Z,70.12
2023-04-08T01:16:14.774Z,70.27
2023-04-08T01:18:42.449Z,70.53
2023-04-08T01:21:09.703Z,69.51
2023-04-08T01:23:47.007Z,69.66
2023-04-08T01:26:22.249Z,68.16
2023-04-08T01:28:51.679Z,69.07
2023-04-08T01:31:18.716Z,69.36
2023-04-08T01:33:46.112Z,69.31
2023-04-08T01:36:13.236Z,67.42
2023-04-08T01:38:40.614Z,66.41
2023-04-08T01:41:09.467Z,65.58
2023-04-08T01:43:36.341Z,64.96
2023-04-08T01:46:03.005Z,66.05
2023-04-08T01:48:30.107Z,64.72
2023-04-08T01:50:57.248Z,65.95
2023-04-08T01:53:24.055Z,65.35
2023-04-08T01:55:55.725Z,64.31
2023-04-08T01:58:22.842Z,64.39
2023-04-08T02:00:50.041Z,64.17
2023-04-08T02:03:19.560Z,64.79
2023-04-08T02:05:46.360Z,64.92
2023-04-08T02:08:13.146Z,65.94
2023-04-08T02:10:40.756Z,66.85
2023-04-08T02:13:07.906Z,66.10
2023-04-08T02:15:35.716Z,65.24
2023-04-08T02:18:16.153Z,64.72
2023-04-08T02:20:51.433Z,65.65
2023-04-08T02:23:24.069Z,64.44
2023-04-08T02:25:53.251Z,63.35
2023-04-08T02:28:19.856Z,62.94
2023-04-08T02:30:51.490Z,62.93
2023-04-08T02:33:19.908Z,62.21
2023-04-08T02:35:48.027Z,62.07
2023-04-08T02:38:14.669Z,61.85
2023-04-08T02:40:41.919Z,61.55
2023-04-08T02:43:08.408Z,60.87
2023-04-08T02:45:42.831Z,60.53
2023-04-08T02:48:10.196Z,60.44
2023-04-08T02:50:37.340Z,60.86
2023-04-08T02:53:04.017Z,61.11
2023-04-08T02:55:30.610Z,60.35
2023-04-08T02:57:57.160Z,59.88
2023-04-08T03:00:23.738Z,60.36
2023-04-08T03:02:50.561Z,60.43
2023-04-08T03:05:17.537Z,59.63
2023-04-08T03:07:44.654Z,59.50
2023-04-08T03:10:12.177Z,59.55
2023-04-08T03:12:38.813Z,59.05
2023-04-08T03:15:06.207Z,59.73
2023-04-08T03:17:34.646Z,59.65
2023-04-08T03:20:04.077Z,59.12
2023-04-08T03:22:31.030Z,59.48
2023-04-08T03:24:57.935Z,59.36
2023-04-08T03:27:24.481Z,60.05
2023-04-08T03:29:51.085Z,60.25
2023-04-08T03:32:18.049Z,61.31
2023-04-08T03:34:44.599Z,60.53
2023-04-08T03:37:11.395Z,60.26
2023-04-08T03:39:38.456Z,60.31
2023-04-08T03:42:05.005Z,59.88
2023-04-08T03:44:31.566Z,60.06
2023-04-08T03:46:58.319Z,59.84
2023-04-08T03:49:24.818Z,60.38
2023-04-08T03:51:51.494Z,61.11
2023-04-08T03:54:18.138Z,61.40
2023-04-08T03:56:44.708Z,60.93
2023-04-08T03:59:11.280Z,60.73
2023-04-08T04:01:38.281Z,60.58
2023-04-08T04:04:05.752Z,60.25
2023-04-08T04:06:32.465Z,60.12
2023-04-08T04:08:58.993Z,59.93
2023-04-08T04:11:26.411Z,59.68
2023-04-08T04:13:52.993Z,59.79
2023-04-08T04:16:20.208Z,59.27
2023-04-08T04:18:46.795Z,59.69
2023-04-08T04:21:13.323Z,59.25
2023-04-08T04:23:39.990Z,58.90
2023-04-08T04:26:10.094Z,59.26
2023-04-08T04:28:36.970Z,59.42
2023-04-08T04:31:03.746Z,58.94
2023-04-08T04:33:31.058Z,59.16
2023-04-08T04:35:57.615Z,58.85
2023-04-08T04:38:24.359Z,58.77
2023-04-08T04:40:51.218Z,58.71
2023-04-08T04:43:17.743Z,58.98
2023-04-08T04:45:45.051Z,59.15
2023-04-08T04:48:11.627Z,59.09
2023-04-08T04:50:38.426Z,59.18
2023-04-08T04:53:05.018Z,59.08
2023-04-08T04:55:31.540Z,58.66
2023-04-08T04:57:58.033Z,58.18
2023-04-08T05:00:24.548Z,58.29
2023-04-08T05:02:51.725Z,58.66
2023-04-08T05:05:18.484Z,58.70
2023-04-08T05:07:45.098Z,58.54
2023-04-08T05:10:11.945Z,58.07
2023-04-08T05:12:38.743Z,58.52
2023-04-08T05:15:06.561Z,58.10
2023-04-08T05:17:33.106Z,59.96
2023-04-08T05:19:59.758Z,59.60
2023-04-08T05:22:26.500Z,58.94
2023-04-08T05:24:53.056Z,58.90
2023-04-08T05:27:21.594Z,58.70
2023-04-08T05:29:48.152Z,58.67
2023-04-08T05:32:16.695Z,58.23
2023-04-08T05:34:43.702Z,58.41
2023-04-08T05:37:10.418Z,57.76
2023-04-08T05:39:37.029Z,57.74
2023-04-08T05:42:03.720Z,57.46
2023-04-08T05:44:30.756Z,57.27
2023-04-08T05:46:58.218Z,56.94
2023-04-08T05:49:24.836Z,56.83
2023-04-08T05:51:51.471Z,56.38
2023-04-08T05:54:17.997Z,55.92
2023-04-08T05:56:46.320Z,55.73
2023-04-08T05:59:12.947Z,55.95
2023-04-08T06:01:39.512Z,55.75
2023-04-08T06:04:06.315Z,55.63
2023-04-08T06:06:33.293Z,55.11
2023-04-08T06:08:59.928Z,54.67
2023-04-08T06:11:26.520Z,54.07
2023-04-08T06:13:53.288Z,53.39
2023-04-08T06:16:21.219Z,53.60
2023-04-08T06:18:49.115Z,53.57
2023-04-08T06:21:16.580Z,53.83
2023-04-08T06:23:43.108Z,53.30
2023-04-08T06:26:09.936Z,52.96
2023-04-08T06:28:36.759Z,52.60
2023-04-08T06:31:03.594Z,52.71
2023-04-08T06:33:30.478Z,52.17
2023-04-08T06:36:04.419Z,51.79
2023-04-08T06:38:32.088Z,51.49
2023-04-08T06:41:06.401Z,52.21
2023-04-08T06:43:33.788Z,52.89
2023-04-08T06:46:00.567Z,52.04
2023-04-08T06:48:33.274Z,52.21
2023-04-08T06:51:01.437Z,51.54
2023-04-08T06:53:32.785Z,51.36
2023-04-08T06:55:59.969Z,50.29
2023-04-08T06:58:27.260Z,49.68
2023-04-08T07:00:56.249Z,49.33
2023-04-08T07:03:23.370Z,48.60
2023-04-08T07:05:50.052Z,48.38
2023-04-08T07:08:16.637Z,47.87
2023-04-08T07:10:43.411Z,48.68
2023-04-08T07:13:10.491Z,47.99
2023-04-08T07:15:39.912Z,48.12
2023-04-08T07:18:06.496Z,47.97
2023-04-08T07:20:35.856Z,47.96
2023-04-08T07:23:02.373Z,48.43
2023-04-08T07:25:28.917Z,48.19
2023-04-08T07:27:56.217Z,48.27
2023-04-08T07:30:22.755Z,49.13
2023-04-08T07:32:49.326Z,48.73
2023-04-08T07:35:19.139Z,48.92
2023-04-08T07:37:46.060Z,49.04
2023-04-08T07:40:12.779Z,49.00
2023-04-08T07:42:40.820Z,50.52
2023-04-08T07:45:08.250Z,49.81
2023-04-08T07:47:34.895Z,49.70
2023-04-08T07:50:01.588Z,49.86
2023-04-08T07:52:28.239Z,49.67
2023-04-08T07:54:55.001Z,49.82
2023-04-08T07:57:21.946Z,50.03
2023-04-08T07:59:48.838Z,49.54
2023-04-08T08:02:15.583Z,49.26
2023-04-08T08:04:42.391Z,49.64
2023-04-08T08:07:09.215Z,49.58
2023-04-08T08:09:35.868Z,49.63
2023-04-08T08:12:02.889Z,49.19
2023-04-08T08:14:29.441Z,48.03
2023-04-08T08:16:56.680Z,48.34
2023-04-08T08:19:23.219Z,46.64
2023-04-08T08:21:49.738Z,46.58
2023-04-08T08:24:17.377Z,45.25
2023-04-08T08:26:45.548Z,45.95
2023-04-08T08:29:12.052Z,46.11
2023-04-08T08:31:38.592Z,46.84
2023-04-08T08:34:05.310Z,47.04
2023-04-08T08:36:33.496Z,47.38
2023-04-08T08:39:01.957Z,47.25
2023-04-08T08:41:33.463Z,47.86
2023-04-08T08:44:00.651Z,47.97
2023-04-08T08:46:27.566Z,47.07
2023-04-08T08:48:54.293Z,45.89
2023-04-08T08:51:21.221Z,46.79
2023-04-08T08:53:47.861Z,46.41
2023-04-08T08:56:18.268Z,46.12
2023-04-08T08:58:45.699Z,46.60
2023-04-08T09:01:32.239Z,46.77
2023-04-08T09:04:12.674Z,46.67
2023-04-08T09:06:39.899Z,48.00
2023-04-08T09:09:10.226Z,47.08
2023-04-08T09:11:42.407Z,48.03
2023-04-08T09:14:24.769Z,47.73
2023-04-08T09:16:52.452Z,47.05
2023-04-08T09:19:19.406Z,47.04
2023-04-08T09:22:04.844Z,47.45
2023-04-08T09:24:31.943Z,48.09
2023-04-08T09:26:58.830Z,47.69
2023-04-08T09:29:32.071Z,48.18
2023-04-08T09:32:01.629Z,47.41
2023-04-08T09:34:29.532Z,49.35
2023-04-08T09:36:56.787Z,48.36
2023-04-08T09:39:23.704Z,48.69
2023-04-08T09:41:51.608Z,47.39
2023-04-08T09:44:20.922Z,46.67
2023-04-08T09:46:56.978Z,46.95
2023-04-08T09:49:27.456Z,46.76
2023-04-08T09:52:18.982Z,47.26
2023-04-08T09:54:57.712Z,46.39
2023-04-08T09:57:53.188Z,47.06
2023-04-08T10:00:22.181Z,47.82
2023-04-08T10:03:12.723Z,47.22
2023-04-08T10:05:42.314Z,46.79
2023-04-08T10:08:08.981Z,47.58
2023-04-08T10:10:37.154Z,46.92
2023-04-08T10:13:04.599Z,46.41
2023-04-08T10:15:32.979Z,46.68
2023-04-08T10:18:05.674Z,46.28
2023-04-08T10:20:38.448Z,46.90
2023-04-08T10:23:13.265Z,45.61
2023-04-08T10:25:43.160Z,46.03
2023-04-08T10:28:17.792Z,45.50
2023-04-08T10:30:47.454Z,44.67
2023-04-08T10:33:16.900Z,44.29
2023-04-08T10:35:48.478Z,44.45
2023-04-08T10:38:16.143Z,45.63
2023-04-08T10:40:44.230Z,46.25
2023-04-08T10:43:12.018Z,45.36
2023-04-08T10:45:39.417Z,44.70
2023-04-08T10:48:24.521Z,44.78
2023-04-08T10:50:59.554Z,44.95
2023-04-08T10:53:34.942Z,45.04
2023-04-08T10:56:17.801Z,44.51
2023-04-08T10:58:56.336Z,44.20
2023-04-08T11:01:23.233Z,45.08
2023-04-08T11:03:50.484Z,45.07
2023-04-08T11:06:17.904Z,44.16
2023-04-08T11:08:44.862Z,44.81
2023-04-08T11:11:12.056Z,46.67
2023-04-08T11:13:52.086Z,46.74
2023-04-08T11:16:21.454Z,46.61
2023-04-08T11:18:48.467Z,45.46
2023-04-08T11:21:15.482Z,45.34
2023-04-08T11:23:42.585Z,45.08
2023-04-08T11:26:09.282Z,45.30
2023-04-08T11:28:35.847Z,44.60
2023-04-08T11:31:04.272Z,44.69
2023-04-08T11:33:31.801Z,43.99
2023-04-08T11:36:01.764Z,44.00
2023-04-08T11:38:28.525Z,43.79
2023-04-08T11:40:56.139Z,43.48
2023-04-08T11:43:23.405Z,46.14
2023-04-08T11:45:50.368Z,45.73
2023-04-08T11:48:17.393Z,46.17
2023-04-08T11:50:45.110Z,45.91
2023-04-08T11:53:22.332Z,46.18
2023-04-08T11:55:49.175Z,46.23
2023-04-08T11:58:15.962Z,46.43
2023-04-08T12:00:42.811Z,45.45
2023-04-08T12:03:10.576Z,44.36
2023-04-08T12:05:37.465Z,43.94
2023-04-08T12:08:04.296Z,44.23
2023-04-08T12:10:31.241Z,43.09
2023-04-08T12:12:57.833Z,42.40
2023-04-08T12:15:24.377Z,41.33
2023-04-08T12:17:51.042Z,42.43
2023-04-08T12:20:18.688Z,41.26
2023-04-08T12:22:45.542Z,41.59
2023-04-08T12:25:12.181Z,41.75
2023-04-08T12:27:38.728Z,40.28
2023-04-08T12:30:05.815Z,38.40
2023-04-08T12:32:33.610Z,38.17
2023-04-08T12:35:00.431Z,38.63
2023-04-08T12:37:27.623Z,39.23
2023-04-08T12:39:54.237Z,38.14
2023-04-08T12:42:20.821Z,40.38
2023-04-08T12:44:47.331Z,39.57
2023-04-08T12:47:13.908Z,40.82
2023-04-08T12:52:10.076Z,41.09
2023-04-08T12:54:36.942Z,41.79
2023-04-08T12:57:04.597Z,42.30
2023-04-08T12:59:32.158Z,43.58
2023-04-08T13:01:59.369Z,43.61
2023-04-08T13:04:25.966Z,43.63
2023-04-08T13:06:52.782Z,43.72
2023-04-08T13:09:19.305Z,45.75
2023-04-08T13:11:45.856Z,44.29
2023-04-08T13:14:13.718Z,43.93
2023-04-08T13:16:40.540Z,44.91
2023-04-08T13:19:07.184Z,44.08
2023-04-08T13:21:33.991Z,46.30
2023-04-08T13:24:00.779Z,45.12
2023-04-08T13:26:27.372Z,45.51
2023-04-08T13:28:57.381Z,46.18
2023-04-08T13:31:25.319Z,45.32
2023-04-08T13:33:52.314Z,44.99
2023-04-08T13:36:19.948Z,44.69
2023-04-08T13:38:46.550Z,44.24
2023-04-08T13:41:13.057Z,43.95
2023-04-08T13:43:39.558Z,43.00
2023-04-08T13:46:06.321Z,42.67
2023-04-08T13:48:32.913Z,41.67
2023-04-08T13:50:59.468Z,42.75
2023-04-08T13:53:26.140Z,42.96
2023-04-08T13:55:55.133Z,42.62
2023-04-08T13:58:24.094Z,43.51
2023-04-08T14:00:54.049Z,42.56
2023-04-08T14:03:20.840Z,43.87
2023-04-08T14:05:47.627Z,44.48
2023-04-08T14:08:14.223Z,44.98
2023-04-08T14:10:42.257Z,44.45
2023-04-08T14:13:09.338Z,44.56
2023-04-08T14:15:36.076Z,45.81
2023-04-08T14:18:02.831Z,46.50
2023-04-08T14:20:29.900Z,46.43
2023-04-08T14:22:56.789Z,46.88
2023-04-08T14:25:24.222Z,46.55
2023-04-08T14:27:58.512Z,47.42
2023-04-08T14:30:26.957Z,48.07
2023-04-08T14:32:54.004Z,47.17
2023-04-08T14:35:20.767Z,47.40
2023-04-08T14:37:47.611Z,46.58
2023-04-08T14:40:14.145Z,46.68
2023-04-08T14:42:40.770Z,45.96
2023-04-08T14:45:07.936Z,45.36
2023-04-08T14:47:34.474Z,46.59
2023-04-08T14:50:01.053Z,46.73
2023-04-08T14:52:27.728Z,46.81
2023-04-08T14:54:54.248Z,46.00
2023-04-08T14:57:20.912Z,45.50
2023-04-08T14:59:48.077Z,45.55
2023-04-08T15:02:14.752Z,45.98
2023-04-08T15:04:41.516Z,47.84
2023-04-08T15:07:08.165Z,47.79
2023-04-08T15:09:34.649Z,47.97
2023-04-08T15:12:01.757Z,47.20
2023-04-08T15:14:28.251Z,46.67
2023-04-08T15:16:54.735Z,46.19
2023-04-08T15:19:21.278Z,46.09
2023-04-08T15:21:48.262Z,47.38
2023-04-08T15:24:14.894Z,48.07
2023-04-08T15:26:41.744Z,48.98
2023-04-08T15:29:08.293Z,48.34
2023-04-08T15:31:35.270Z,49.16
2023-04-08T15:34:02.850Z,48.39
2023-04-08T15:36:30.427Z,48.01
2023-04-08T15:38:57.097Z,47.50
2023-04-08T15:41:23.642Z,47.44
2023-04-08T15:43:50.216Z,48.03
2023-04-08T15:46:20.854Z,48.40
2023-04-08T15:48:48.078Z,49.08
2023-04-08T15:51:14.620Z,50.18
2023-04-08T15:53:41.683Z,50.01
2023-04-08T15:56:18.105Z,51.09
2023-04-08T15:58:45.989Z,50.17
2023-04-08T16:01:13.487Z,50.75
2023-04-08T16:03:40.082Z,51.66
2023-04-08T16:06:07.694Z,50.94
2023-04-08T16:08:34.796Z,50.87
2023-04-08T16:11:04.424Z,51.64
2023-04-08T16:13:31.346Z,52.50
2023-04-08T16:16:01.957Z,53.80
2023-04-08T16:18:29.399Z,52.49
2023-04-08T16:20:56.822Z,53.37
2023-04-08T16:23:23.792Z,53.19
2023-04-08T16:25:50.333Z,52.32
2023-04-08T16:28:18.069Z,51.84
2023-04-08T16:30:44.641Z,52.62
2023-04-08T16:33:13.835Z,52.38
2023-04-08T16:35:40.435Z,51.86
2023-04-08T16:38:07.133Z,52.34
2023-04-08T16:40:34.934Z,51.89
2023-04-08T16:43:02.355Z,52.44
2023-04-08T16:45:29.991Z,53.11
2023-04-08T16:47:57.231Z,53.39
2023-04-08T16:50:24.197Z,54.40
2023-04-08T16:52:50.823Z,53.88
2023-04-08T16:55:17.810Z,54.40
2023-04-08T16:57:44.704Z,53.49
2023-04-08T17:00:11.739Z,53.53
2023-04-08T17:02:38.520Z,53.75
2023-04-08T17:05:05.476Z,54.47
2023-04-08T17:07:35.227Z,53.69
2023-04-08T17:10:01.838Z,53.86
2023-04-08T17:12:28.760Z,53.55
2023-04-08T17:14:55.232Z,54.37
2023-04-08T17:17:21.836Z,55.00
2023-04-08T17:19:48.452Z,55.20
2023-04-08T17:22:14.934Z,55.83
2023-04-08T17:24:41.881Z,55.70
2023-04-08T17:27:08.528Z,56.02
2023-04-08T17:29:35.051Z,55.72
2023-04-08T17:32:01.645Z,56.25
2023-04-08T17:34:29.171Z,57.33
2023-04-08T17:36:56.781Z,57.87
2023-04-08T17:39:23.410Z,58.50
2023-04-08T17:41:50.385Z,58.84
2023-04-08T17:44:17.200Z,58.55
2023-04-08T17:46:43.760Z,58.12
2023-04-08T17:49:12.780Z,58.10
2023-04-08T17:51:39.365Z,57.76
2023-04-08T17:54:05.918Z,57.49
2023-04-08T17:56:33.376Z,56.30
2023-04-08T17:59:00.443Z,57.02
2023-04-08T18:01:27.182Z,57.33
2023-04-08T18:03:54.367Z,57.11
2023-04-08T18:06:21.252Z,56.72
2023-04-08T18:08:47.863Z,56.86
2023-04-08T18:11:14.474Z,56.34
2023-04-08T18:13:41.079Z,56.21
2023-04-08T18:16:15.616Z,56.28
2023-04-08T18:18:42.222Z,55.87
2023-04-08T18:21:08.820Z,56.59
2023-04-08T18:23:35.307Z,56.31
2023-04-08T18:26:01.867Z,55.55
2023-04-08T18:28:28.439Z,55.52
2023-04-08T18:30:55.301Z,56.83
2023-04-08T18:33:21.953Z,57.10
2023-04-08T18:35:48.514Z,55.90
2023-04-08T18:38:15.108Z,56.09
2023-04-08T18:40:42.114Z,56.48
2023-04-08T18:43:09.558Z,56.21
2023-04-08T18:45:36.616Z,55.63
2023-04-08T18:48:03.269Z,55.66
2023-04-08T18:50:29.775Z,56.35
2023-04-08T18:52:56.613Z,56.63
2023-04-08T18:55:23.189Z,57.11
2023-04-08T18:57:50.740Z,55.54
2023-04-08T19:00:17.320Z,55.55
2023-04-08T19:02:44.032Z,56.32
2023-04-08T19:05:10.745Z,55.47
2023-04-08T19:07:37.185Z,55.22
2023-04-08T19:10:03.935Z,55.70
2023-04-08T19:12:31.502Z,54.98
2023-04-08T19:14:59.384Z,54.51
2023-04-08T19:17:26.206Z,54.87
2023-04-08T19:19:52.690Z,55.27
2023-04-08T19:22:19.312Z,55.37
2023-04-08T19:24:45.932Z,54.85
2023-04-08T19:27:14.424Z,54.46
2023-04-08T19:29:40.959Z,54.79
2023-04-08T19:32:07.827Z,57.15
2023-04-08T19:34:38.491Z,56.87
2023-04-08T19:37:06.553Z,57.20
2023-04-08T19:39:33.422Z,57.00
2023-04-08T19:41:59.966Z,55.61
2023-04-08T19:44:27.165Z,55.60
2023-04-08T19:46:54.565Z,55.65
2023-04-08T19:49:21.810Z,55.53
2023-04-08T19:51:48.605Z,55.55
2023-04-08T19:54:15.141Z,55.37
2023-04-08T19:56:41.787Z,55.96
2023-04-08T19:59:08.292Z,55.95
2023-04-08T20:01:35.989Z,55.97
2023-04-08T20:04:02.735Z,56.19
2023-04-08T20:06:29.642Z,54.92
2023-04-08T20:08:56.239Z,55.44
2023-04-08T20:11:23.075Z,55.80
2023-04-08T20:13:51.412Z,55.28
2023-04-08T20:16:18.602Z,55.20
2023-04-08T20:18:47.856Z,54.90
2023-04-08T20:21:14.728Z,55.51
2023-04-08T20:23:44.298Z,55.21
2023-04-08T20:26:12.626Z,55.69
2023-04-08T20:28:39.743Z,55.34
2023-04-08T20:31:07.403Z,54.23
2023-04-08T20:33:33.998Z,53.57
2023-04-08T20:36:01.079Z,53.31
2023-04-08T20:38:28.188Z,53.55
2023-04-08T20:40:54.745Z,53.50
2023-04-08T20:43:21.245Z,53.25
2023-04-08T20:45:48.103Z,52.64
2023-04-08T20:48:14.556Z,52.72
2023-04-08T20:50:41.456Z,52.78
2023-04-08T20:53:08.432Z,52.40
2023-04-08T20:55:35.063Z,52.42
2023-04-08T20:58:05.606Z,52.96
2023-04-08T21:00:32.225Z,53.74
2023-04-08T21:02:59.606Z,53.02
2023-04-08T21:05:26.556Z,52.96
2023-04-08T21:07:53.193Z,53.29
2023-04-08T21:10:19.772Z,54.42
2023-04-08T21:12:46.285Z,55.27
2023-04-08T21:15:12.826Z,55.37
2023-04-08T21:17:39.359Z,56.45
2023-04-08T21:20:06.591Z,55.77
2023-04-08T21:22:33.056Z,56.56
2023-04-08T21:24:59.588Z,56.44
2023-04-08T21:27:26.082Z,56.41
2023-04-08T21:29:52.782Z,56.22
2023-04-08T21:32:19.589Z,56.22
2023-04-08T21:34:48.887Z,57.15
2023-04-08T21:37:15.457Z,56.98
2023-04-08T21:39:41.983Z,56.09
2023-04-08T21:42:08.494Z,57.11
2023-04-08T21:44:35.024Z,56.63
2023-04-08T21:47:02.184Z,57.39
2023-04-08T21:49:29.806Z,56.54
2023-04-08T21:51:56.349Z,56.39
2023-04-08T21:54:23.295Z,56.33
2023-04-08T21:56:49.848Z,56.45
2023-04-08T21:59:16.602Z,56.66
2023-04-08T22:01:43.341Z,56.52
2023-04-08T22:04:11.011Z,57.39
2023-04-08T22:06:37.633Z,56.82
2023-04-08T22:09:04.489Z,57.24
2023-04-08T22:11:31.199Z,58.22
2023-04-08T22:13:57.967Z,56.91
2023-04-08T22:16:24.570Z,57.20
2023-04-08T22:18:51.796Z,56.62
2023-04-08T22:21:18.575Z,56.57
2023-04-08T22:23:46.053Z,56.91
2023-04-08T22:26:13.519Z,56.08
2023-04-08T22:28:41.779Z,56.57
2023-04-08T22:31:12.289Z,57.54
2023-04-08T22:33:39.706Z,58.12
2023-04-08T22:36:06.606Z,57.87
2023-04-08T22:38:33.276Z,56.90
2023-04-08T22:40:59.881Z,56.76
2023-04-08T22:43:27.117Z,57.83
2023-04-08T22:45:53.633Z,57.04
2023-04-08T22:48:20.301Z,57.00
2023-04-08T22:50:46.981Z,57.32
2023-04-08T22:53:13.585Z,56.90
2023-04-08T22:55:40.228Z,57.10
2023-04-08T22:58:06.797Z,56.88
2023-04-08T23:00:33.341Z,56.99
2023-04-08T23:03:04.115Z,56.98
2023-04-08T23:05:31.183Z,56.63
2023-04-08T23:07:57.796Z,57.87
2023-04-08T23:10:24.304Z,59.49
2023-04-08T23:12:50.995Z,58.10
2023-04-08T23:15:17.931Z,57.80
2023-04-08T23:17:44.469Z,57.31
2023-04-08T23:20:11.525Z,57.34
2023-04-08T23:22:38.167Z,57.45
2023-04-08T23:25:05.242Z,57.38
2023-04-08T23:27:31.801Z,57.32
2023-04-08T23:29:58.382Z,57.20
2023-04-08T23:32:24.961Z,57.37
2023-04-08T23:34:51.487Z,57.99
2023-04-08T23:37:18.119Z,57.24
2023-04-08T23:39:44.620Z,57.13
2023-04-08T23:42:11.208Z,57.31
2023-04-08T23:44:37.715Z,57.16
2023-04-08T23:47:04.267Z,57.08
2023-04-08T23:49:30.916Z,56.97
2023-04-08T23:51:57.544Z,56.95
2023-04-08T23:54:24.223Z,57.99
2023-04-08T23:56:50.735Z,57.33
2023-04-08T23:59:17.402Z,57.35
